Time;durP1;ratioP1;P1;durP2;ratioP2;P2;SDS_P1;SDS_P2;PMS_P1;PMS_P2;Temp;Humidity;BMP_temperature;BMP_pressure;BME280_temperature;BME280_humidity;BME280_pressure;Samples;Min_cycle;Max_cycle;Signal;HPM_P1;HPM_P2
2023/10/01 00:00:10;;;;;;;9.43;6.28;;;;;;;11.62;90.26;93505.97;5115439;27;20058;-75
2023/10/01 00:02:38;;;;;;;11.40;6.00;;;;;;;11.47;90.57;93480.53;5111575;27;20043;-75
2023/10/01 00:05:05;;;;;;;8.90;5.78;;;;;;;11.57;90.70;93492.94;5113640;27;20047;-76
2023/10/01 00:07:36;;;;;;;11.02;5.70;;;;;;;11.58;89.86;93481.63;5111585;27;20047;-75
2023/10/01 00:10:10;;;;;;;6.95;5.20;;;;;;;11.57;90.43;93484.44;5111197;27;20044;-75
2023/10/01 00:12:38;;;;;;;11.60;5.50;;;;;;;11.56;90.18;93477.69;5111498;27;20101;-75
2023/10/01 00:15:10;;;;;;;9.48;5.47;;;;;;;11.58;90.64;93486.00;5111363;27;20052;-75
2023/10/01 00:17:37;;;;;;;9.65;5.97;;;;;;;11.49;91.41;93490.63;5112341;27;20047;-75
2023/10/01 00:20:14;;;;;;;8.63;5.35;;;;;;;11.52;90.76;93486.84;5111132;27;20050;-75
2023/10/01 00:22:43;;;;;;;7.75;5.32;;;;;;;11.47;90.63;93482.31;5121273;27;20073;-75
2023/10/01 00:25:11;;;;;;;13.18;5.95;;;;;;;11.50;90.29;93479.34;5130348;27;20069;-75
2023/10/01 00:27:38;;;;;;;8.70;5.85;;;;;;;11.41;91.72;93483.94;5129909;27;20043;-75
2023/10/01 00:30:08;;;;;;;10.68;5.40;;;;;;;11.42;90.92;93484.72;5116543;27;20101;-75
2023/10/01 00:32:35;;;;;;;9.45;6.28;;;;;;;11.34;90.46;93481.41;5115181;27;20051;-75
2023/10/01 00:35:06;;;;;;;10.07;6.00;;;;;;;11.31;91.91;93491.31;5112025;27;20129;-75
2023/10/01 00:37:33;;;;;;;11.18;6.43;;;;;;;11.24;92.59;93493.91;5111445;27;20066;-75
2023/10/01 00:40:05;;;;;;;9.63;6.20;;;;;;;11.18;93.48;93487.84;5111156;27;20063;-75
2023/10/01 00:42:34;;;;;;;12.63;6.32;;;;;;;11.20;92.76;93488.41;5113542;27;20075;-75
2023/10/01 00:45:01;;;;;;;10.25;6.50;;;;;;;11.28;92.39;93484.81;5118526;27;20043;-75
2023/10/01 00:47:29;;;;;;;9.30;5.90;;;;;;;11.26;93.13;93488.56;5124243;27;20053;-75
2023/10/01 00:49:58;;;;;;;12.38;6.95;;;;;;;11.22;92.91;93478.69;5125123;27;20047;-75
2023/10/01 00:52:25;;;;;;;11.25;6.40;;;;;;;11.23;92.90;93480.28;5124749;27;20622;-75
2023/10/01 00:54:54;;;;;;;8.65;6.20;;;;;;;11.04;92.86;93448.56;5125782;27;20043;-76
2023/10/01 00:57:22;;;;;;;11.73;6.40;;;;;;;11.21;93.59;93481.50;5119888;27;20126;-76
2023/10/01 00:59:50;;;;;;;9.52;6.15;;;;;;;11.11;93.16;93474.19;5112823;27;20047;-76
2023/10/01 01:02:17;;;;;;;9.45;6.20;;;;;;;11.19;92.78;93478.31;5112630;27;20051;-76
2023/10/01 01:04:59;;;;;;;12.30;6.93;;;;;;;11.12;93.86;93475.81;5118462;27;20051;-76
2023/10/01 01:07:28;;;;;;;13.10;6.13;;;;;;;11.12;93.38;93483.50;5119995;27;20043;-76
2023/10/01 01:09:55;;;;;;;10.32;6.82;;;;;;;11.13;92.89;93481.72;5123000;27;20074;-76
2023/10/01 01:12:24;;;;;;;11.48;6.90;;;;;;;11.08;92.97;93477.97;5121736;27;20063;-76
2023/10/01 01:14:50;;;;;;;11.48;6.70;;;;;;;11.03;93.13;93474.47;5120649;27;20071;-76
2023/10/01 01:17:21;;;;;;;10.90;6.50;;;;;;;11.00;93.36;93467.94;5114560;27;20665;-76
2023/10/01 01:19:52;;;;;;;8.55;6.00;;;;;;;10.91;92.97;93462.25;5113211;27;20050;-75
2023/10/01 01:22:29;;;;;;;9.32;5.90;;;;;;;10.99;93.34;93475.84;5114646;27;20052;-76
2023/10/01 01:25:00;;;;;;;10.05;6.85;;;;;;;10.81;92.98;93456.75;5111904;27;20044;-75
2023/10/01 01:27:30;;;;;;;9.32;5.93;;;;;;;10.91;93.89;93466.59;5110192;27;20043;-76
2023/10/01 01:29:57;;;;;;;8.68;6.28;;;;;;;10.80;94.06;93465.47;5110140;27;20051;-75
2023/10/01 01:32:24;;;;;;;8.02;5.40;;;;;;;10.85;94.00;93465.66;5113438;27;20390;-76
2023/10/01 01:34:52;;;;;;;9.65;6.15;;;;;;;10.87;95.18;93463.66;5110072;27;20130;-75
2023/10/01 01:37:30;;;;;;;8.52;5.60;;;;;;;10.90;94.47;93472.72;5112201;27;20108;-75
2023/10/01 01:39:59;;;;;;;11.77;6.30;;;;;;;10.92;94.38;93471.53;5113919;27;20051;-76
2023/10/01 01:42:27;;;;;;;10.30;6.05;;;;;;;10.86;95.24;93472.34;5112605;27;20101;-75
2023/10/01 01:47:35;;;;;;;10.05;6.18;;;;;;;10.80;96.24;93473.94;5109367;27;20417;-76
2023/10/01 01:50:17;;;;;;;12.35;6.40;;;;;;;10.76;96.85;93477.13;5110104;27;20067;-75
2023/10/01 01:52:44;;;;;;;11.68;6.13;;;;;;;10.81;96.69;93479.88;5112135;27;20055;-75
2023/10/01 01:55:23;;;;;;;9.18;5.78;;;;;;;10.80;96.46;93468.03;5109790;27;20050;-76
2023/10/01 01:58:02;;;;;;;9.00;5.90;;;;;;;10.86;96.25;93474.13;5109597;27;20138;-75
2023/10/01 02:00:31;;;;;;;8.13;5.78;;;;;;;10.91;95.99;93466.59;5109283;27;20047;-75
2023/10/01 02:03:02;;;;;;;8.88;6.43;;;;;;;10.86;95.59;93464.66;5109627;27;20943;-75
2023/10/01 02:05:29;;;;;;;11.63;6.22;;;;;;;10.88;95.71;93462.66;5109316;27;20134;-75
2023/10/01 02:08:06;;;;;;;10.88;6.80;;;;;;;10.79;97.65;93463.91;5111401;27;20048;-75
2023/10/01 02:10:44;;;;;;;9.30;5.88;;;;;;;10.80;96.27;93466.25;5110337;27;20067;-75
2023/10/01 02:13:13;;;;;;;8.13;5.97;;;;;;;10.70;96.74;93465.91;5109237;27;20052;-75
2023/10/01 02:15:41;;;;;;;10.93;6.50;;;;;;;10.60;95.99;93443.19;5112962;27;20054;-75
2023/10/01 02:18:09;;;;;;;7.72;5.95;;;;;;;10.68;96.48;93466.09;5117404;27;20055;-76
2023/10/01 02:20:37;;;;;;;9.77;6.47;;;;;;;10.72;95.73;93469.06;5111419;27;20487;-76
2023/10/01 02:23:04;;;;;;;11.40;6.05;;;;;;;10.63;96.44;93467.69;5127401;27;20054;-76
2023/10/01 02:25:38;;;;;;;9.02;6.10;;;;;;;10.55;96.08;93445.59;5127766;27;20131;-76
2023/10/01 02:28:11;;;;;;;8.98;6.25;;;;;;;10.54;97.41;93464.56;5125656;27;20563;-76
2023/10/01 02:30:40;;;;;;;8.20;5.93;;;;;;;10.54;96.85;93454.28;5108297;27;20083;-76
2023/10/01 02:35:58;;;;;;;11.38;5.90;;;;;;;10.51;97.85;93460.63;5103071;27;20054;-76
2023/10/01 02:38:45;;;;;;;10.13;6.30;;;;;;;10.52;97.17;93458.84;5108711;27;20423;-76
2023/10/01 02:41:15;;;;;;;10.35;6.28;;;;;;;10.50;96.96;93455.69;5119681;27;20473;-76
2023/10/01 02:43:45;;;;;;;9.90;5.97;;;;;;;10.41;97.46;93453.31;5110951;27;20052;-76
2023/10/01 02:46:12;;;;;;;9.48;6.50;;;;;;;10.35;97.46;93445.63;5108206;27;20046;-77
2023/10/01 02:48:41;;;;;;;11.32;6.05;;;;;;;10.28;97.82;93441.31;5112936;27;20047;-76
2023/10/01 02:51:16;;;;;;;8.75;5.50;;;;;;;10.34;97.53;93462.81;5109477;27;20050;-76
2023/10/01 02:54:01;;;;;;;9.60;6.43;;;;;;;10.37;97.92;93461.63;5118645;27;20047;-76
2023/10/01 02:56:27;;;;;;;8.65;6.05;;;;;;;10.33;98.34;93458.69;5120103;27;20047;-76
2023/10/01 02:58:55;;;;;;;8.23;5.38;;;;;;;10.27;98.85;93449.19;5118744;27;20039;-75
2023/10/01 03:01:22;;;;;;;8.50;5.80;;;;;;;10.32;97.77;93461.44;5120185;27;20054;-76
2023/10/01 03:03:50;;;;;;;14.20;6.30;;;;;;;10.14;99.31;93444.91;5116752;27;20074;-76
2023/10/01 03:06:17;;;;;;;8.93;6.20;;;;;;;10.21;99.35;93450.81;5119593;27;20052;-75
2023/10/01 03:09:04;;;;;;;8.77;5.55;;;;;;;10.18;99.31;93456.31;5108247;28;20129;-75
2023/10/01 03:11:40;;;;;;;9.68;6.13;;;;;;;10.25;98.17;93453.75;5117752;27;20147;-76
2023/10/01 03:14:19;;;;;;;10.40;6.47;;;;;;;10.25;99.09;93457.13;5107938;27;20131;-76
2023/10/01 03:16:53;;;;;;;8.35;6.20;;;;;;;10.17;98.88;93444.50;5108117;27;20043;-77
2023/10/01 03:19:25;;;;;;;8.50;5.82;;;;;;;10.13;99.32;93451.00;5116845;27;20070;-76
2023/10/01 03:24:42;;;;;;;9.02;6.32;;;;;;;10.11;99.88;93448.66;5107733;28;20100;-75
2023/10/01 03:27:19;;;;;;;9.15;5.65;;;;;;;10.12;99.39;93452.81;5117959;27;21486;-75
2023/10/01 03:29:53;;;;;;;8.90;6.28;;;;;;;10.04;99.78;93447.88;5118442;27;20043;-75
2023/10/01 03:32:32;;;;;;;9.82;6.72;;;;;;;10.07;100.00;93451.81;5117905;27;20058;-75
2023/10/01 03:35:05;;;;;;;9.73;6.57;;;;;;;9.87;100.00;93424.41;5117868;27;20047;-75
2023/10/01 03:37:38;;;;;;;10.30;7.05;;;;;;;9.99;100.00;93452.81;5107059;27;20073;-76
2023/10/01 03:40:14;;;;;;;10.73;6.78;;;;;;;9.90;100.00;93444.53;5088066;28;20122;-75
2023/10/01 03:42:49;;;;;;;8.88;6.10;;;;;;;9.99;100.00;93453.59;5091975;28;20117;-76
2023/10/01 03:45:37;;;;;;;8.77;6.43;;;;;;;10.05;99.31;93452.03;5087362;28;20500;-75
2023/10/01 03:48:15;;;;;;;9.38;6.40;;;;;;;9.86;99.40;93433.09;5089621;28;20048;-74
2023/10/01 03:50:47;;;;;;;11.73;6.80;;;;;;;9.93;99.89;93446.72;5088647;28;20058;-76
2023/10/01 03:53:18;;;;;;;10.15;6.47;;;;;;;9.94;99.64;93455.97;5087553;28;20058;-76
2023/10/01 03:55:46;;;;;;;8.23;6.65;;;;;;;9.91;100.00;93451.25;5088231;28;20047;-75
2023/10/01 03:58:25;;;;;;;9.63;6.63;;;;;;;9.89;100.00;93448.88;5087522;28;20048;-76
2023/10/01 04:01:09;;;;;;;9.25;6.60;;;;;;;9.88;100.00;93465.28;5089174;28;20500;-76
2023/10/01 04:03:39;;;;;;;8.48;6.63;;;;;;;9.95;99.29;93455.00;5087281;28;20044;-76
2023/10/01 04:06:06;;;;;;;9.70;6.40;;;;;;;9.93;99.77;93456.16;5087065;28;20052;-75
2023/10/01 04:08:39;;;;;;;11.07;6.88;;;;;;;9.87;99.69;93468.81;5087545;28;20135;-75
2023/10/01 04:11:11;;;;;;;9.65;6.60;;;;;;;9.87;99.03;93468.81;5091414;28;20046;-75
2023/10/01 04:13:38;;;;;;;11.10;6.22;;;;;;;9.83;100.00;93469.41;5087148;28;20044;-78
2023/10/01 04:16:08;;;;;;;9.40;5.53;;;;;;;9.88;99.77;93472.97;5087305;28;20059;-74
2023/10/01 04:18:36;;;;;;;10.55;6.85;;;;;;;9.72;99.81;93448.50;5087322;28;20055;-76
2023/10/01 04:23:54;;;;;;;9.60;6.32;;;;;;;9.75;100.00;93462.69;5069072;28;20411;-76
2023/10/01 04:26:22;;;;;;;9.30;6.18;;;;;;;9.68;99.83;93459.34;5089265;28;20098;-76
2023/10/01 04:28:54;;;;;;;8.57;5.80;;;;;;;9.67;98.85;93453.41;5085612;28;20059;-77
2023/10/01 04:34:05;;;;;;;9.07;6.00;;;;;;;9.72;99.17;93478.50;5088806;28;20495;-77
2023/10/01 04:36:32;;;;;;;11.48;6.38;;;;;;;9.71;99.65;93487.16;5099098;27;20051;-77
2023/10/01 04:39:00;;;;;;;8.80;6.32;;;;;;;9.74;99.33;93482.44;5124298;27;20047;-77
2023/10/01 04:41:27;;;;;;;8.60;6.15;;;;;;;9.76;99.43;93480.47;5122930;27;20066;-77
2023/10/01 04:43:55;;;;;;;9.82;6.50;;;;;;;9.71;100.00;93482.03;5121900;27;20067;-77
2023/10/01 04:46:25;;;;;;;10.75;6.13;;;;;;;9.69;100.00;93489.94;5125029;27;20038;-77
2023/10/01 04:48:52;;;;;;;9.93;6.35;;;;;;;9.70;100.00;93483.81;5121175;27;20044;-76
2023/10/01 04:51:22;;;;;;;8.18;6.70;;;;;;;9.71;100.00;93494.84;5123523;27;20767;-76
2023/10/01 04:53:49;;;;;;;9.65;7.07;;;;;;;9.77;100.00;93504.34;5120996;27;20430;-76
2023/10/01 04:56:21;;;;;;;10.57;6.40;;;;;;;9.72;99.90;93479.28;5116015;27;20419;-76
2023/10/01 04:58:51;;;;;;;10.48;6.40;;;;;;;9.84;100.00;93501.78;5115164;27;20043;-75
2023/10/01 05:01:23;;;;;;;10.93;6.57;;;;;;;9.86;99.10;93508.28;5116753;27;20096;-76
2023/10/01 05:03:54;;;;;;;8.82;6.60;;;;;;;9.86;99.25;93505.72;5116725;27;20043;-76
2023/10/01 05:06:22;;;;;;;14.45;6.88;;;;;;;9.79;99.67;93489.53;5113614;27;20598;-77
2023/10/01 05:08:53;;;;;;;11.73;6.47;;;;;;;9.67;98.88;93473.16;5115683;27;20075;-76
2023/10/01 05:11:22;;;;;;;10.00;6.15;;;;;;;9.80;98.72;93496.25;5111978;27;20058;-76
2023/10/01 05:13:51;;;;;;;11.75;6.78;;;;;;;9.92;99.74;93514.41;5128646;27;20047;-76
2023/10/01 05:16:26;;;;;;;10.55;6.18;;;;;;;9.90;99.75;93511.25;5117468;27;20051;-76
2023/10/01 05:19:14;;;;;;;9.90;7.03;;;;;;;9.94;99.78;93520.13;5110990;27;20053;-76
2023/10/01 05:21:47;;;;;;;14.77;7.10;;;;;;;9.99;99.55;93522.91;5110598;27;20075;-76
2023/10/01 05:24:31;;;;;;;10.80;6.85;;;;;;;10.02;99.73;93517.38;5110865;27;20125;-76
2023/10/01 05:27:00;;;;;;;11.65;5.97;;;;;;;10.12;100.00;93527.25;5115281;27;20395;-76
2023/10/01 05:29:28;;;;;;;12.20;8.38;;;;;;;10.06;100.00;93527.22;5110750;27;20054;-76
2023/10/01 05:31:55;;;;;;;13.05;8.30;;;;;;;10.08;100.00;93532.94;5112718;27;20043;-76
2023/10/01 05:34:25;;;;;;;10.13;8.13;;;;;;;10.05;100.00;93531.59;5110850;27;20044;-76
2023/10/01 05:36:52;;;;;;;12.80;8.27;;;;;;;9.96;100.00;93523.28;5110542;27;20058;-76
2023/10/01 05:39:23;;;;;;;16.27;9.50;;;;;;;10.11;100.00;93532.56;5113978;27;20071;-76
2023/10/01 05:41:51;;;;;;;14.32;8.07;;;;;;;10.20;100.00;93535.72;5109948;27;20091;-76
2023/10/01 05:44:21;;;;;;;12.90;7.80;;;;;;;10.32;100.00;93534.13;5110873;27;20411;-76
2023/10/01 05:46:48;;;;;;;12.88;8.70;;;;;;;10.40;100.00;93520.28;5111907;27;20142;-76
2023/10/01 05:49:18;;;;;;;18.25;9.38;;;;;;;10.65;100.00;93540.22;5110193;27;20081;-76
2023/10/01 05:51:48;;;;;;;15.93;9.65;;;;;;;10.76;99.46;93541.38;5110715;27;20040;-76
2023/10/01 05:54:18;;;;;;;15.55;8.93;;;;;;;10.85;100.00;93535.03;5112418;27;20051;-76
2023/10/01 05:56:48;;;;;;;16.00;8.93;;;;;;;10.94;99.85;93538.94;5110207;27;20050;-76
2023/10/01 05:59:16;;;;;;;22.48;9.57;;;;;;;11.10;99.43;93539.47;5110245;27;20055;-76
2023/10/01 06:01:43;;;;;;;22.65;10.50;;;;;;;11.23;99.90;93534.28;5111203;27;20055;-76
2023/10/01 06:04:12;;;;;;;13.77;9.70;;;;;;;11.34;100.00;93530.25;5110978;27;20082;-75
2023/10/01 06:06:42;;;;;;;15.70;9.85;;;;;;;11.57;98.04;93543.63;5109755;27;20077;-76
2023/10/01 06:09:14;;;;;;;21.83;10.35;;;;;;;11.71;98.42;93534.78;5109036;27;20047;-76
2023/10/01 06:11:48;;;;;;;21.17;10.80;;;;;;;11.83;97.15;93531.56;5109621;27;20768;-76
2023/10/01 06:17:10;;;;;;;20.60;9.60;;;;;;;12.25;98.78;93546.50;5041003;27;1772058;-75
2023/10/01 06:19:40;;;;;;;20.08;10.90;;;;;;;12.37;100.00;93539.66;5103375;28;20393;-75
2023/10/01 06:22:13;;;;;;;16.20;9.88;;;;;;;12.50;100.00;93535.41;5094357;28;20496;-75
2023/10/01 06:24:43;;;;;;;15.98;9.65;;;;;;;12.68;99.96;93529.44;5090176;28;20048;-76
2023/10/01 06:27:12;;;;;;;16.27;9.48;;;;;;;12.83;99.78;93526.53;5081653;28;20135;-76
2023/10/01 06:29:49;;;;;;;15.82;9.82;;;;;;;12.95;99.08;93529.97;5095661;28;20044;-75
2023/10/01 06:32:19;;;;;;;13.20;8.48;;;;;;;13.08;97.83;93530.81;5103023;28;20048;-75
2023/10/01 06:34:47;;;;;;;14.18;8.88;;;;;;;13.17;97.88;93529.50;5092681;28;20044;-74
2023/10/01 06:37:14;;;;;;;14.50;9.38;;;;;;;13.41;97.84;93536.53;5090688;28;20052;-75
2023/10/01 06:39:43;;;;;;;16.58;8.70;;;;;;;13.59;97.32;93535.75;5085229;28;20048;-74
2023/10/01 06:42:19;;;;;;;17.63;9.07;;;;;;;13.62;96.55;93519.84;5095111;28;20139;-76
2023/10/01 06:44:49;;;;;;;17.13;8.93;;;;;;;13.90;96.15;93545.03;5095820;28;20097;-74
2023/10/01 06:47:16;;;;;;;15.63;9.73;;;;;;;14.10;96.29;93554.28;5090834;28;20136;-74
2023/10/01 06:49:57;;;;;;;16.55;8.68;;;;;;;14.18;94.64;93545.41;5088446;28;20048;-74
2023/10/01 06:52:26;;;;;;;20.05;9.40;;;;;;;14.43;94.52;93550.38;5090688;28;20048;-74
2023/10/01 06:54:53;;;;;;;18.75;9.63;;;;;;;14.59;93.89;93557.66;5092363;28;20052;-74
2023/10/01 06:57:22;;;;;;;21.15;9.82;;;;;;;14.77;93.57;93556.78;5077100;28;20052;-74
2023/10/01 06:59:49;;;;;;;17.30;9.80;;;;;;;14.91;92.29;93541.81;5090844;28;20071;-74
2023/10/01 07:02:15;;;;;;;20.85;9.95;;;;;;;15.19;91.63;93551.41;5084234;28;20594;-74
2023/10/01 07:04:56;;;;;;;15.82;9.38;;;;;;;15.32;91.00;93554.75;5084627;28;20435;-74
2023/10/01 07:07:23;;;;;;;19.63;9.57;;;;;;;15.51;89.99;93560.56;5078043;28;20143;-74
2023/10/01 07:09:53;;;;;;;22.92;11.00;;;;;;;15.72;89.22;93566.88;5088522;28;20048;-74
2023/10/01 07:12:20;;;;;;;23.50;10.50;;;;;;;15.92;88.28;93563.03;5081313;28;20040;-73
2023/10/01 07:14:50;;;;;;;16.42;9.90;;;;;;;16.02;86.72;93554.69;5091939;28;20495;-74
2023/10/01 07:17:23;;;;;;;20.27;9.27;;;;;;;16.29;86.07;93567.81;5102692;28;20060;-73
2023/10/01 07:20:00;;;;;;;25.02;10.13;;;;;;;16.40;85.41;93560.19;5093629;28;20052;-73
2023/10/01 07:22:30;;;;;;;18.98;9.40;;;;;;;16.66;84.65;93565.75;5085359;28;20056;-74
2023/10/01 07:24:57;;;;;;;19.58;9.23;;;;;;;16.92;82.71;93572.06;5086450;28;20051;-74
2023/10/01 07:27:26;;;;;;;18.23;10.73;;;;;;;17.11;82.09;93571.78;5072570;28;20377;-74
2023/10/01 07:29:54;;;;;;;24.33;9.55;;;;;;;17.33;82.08;93568.41;5075818;28;20725;-74
2023/10/01 07:32:22;;;;;;;17.00;8.43;;;;;;;17.48;79.38;93562.59;5088865;28;20056;-74
2023/10/01 07:34:55;;;;;;;14.38;7.78;;;;;;;17.75;78.02;93574.81;5066063;28;20075;-74
2023/10/01 07:37:26;;;;;;;20.38;9.00;;;;;;;17.68;78.07;93551.59;5070509;28;20048;-74
2023/10/01 07:39:55;;;;;;;17.10;8.45;;;;;;;18.03;76.65;93572.97;5063614;28;20120;-74
2023/10/01 07:42:23;;;;;;;18.70;8.35;;;;;;;17.74;76.69;93542.84;5072595;28;20060;-74
2023/10/01 07:44:49;;;;;;;15.88;8.32;;;;;;;17.99;76.67;93566.69;5079930;28;20534;-74
2023/10/01 07:47:29;;;;;;;13.75;8.73;;;;;;;17.95;77.49;93565.63;5071523;28;20072;-74
2023/10/01 07:49:58;;;;;;;15.35;8.88;;;;;;;17.86;77.90;93557.47;5068493;28;20053;-74
2023/10/01 07:52:25;;;;;;;17.25;8.35;;;;;;;18.07;78.31;93561.09;5068781;28;20059;-74
2023/10/01 07:54:55;;;;;;;16.90;8.55;;;;;;;18.43;78.81;93570.97;5077160;28;20048;-75
2023/10/01 07:57:27;;;;;;;16.10;9.07;;;;;;;18.72;78.14;93554.22;5070443;28;20497;-74
2023/10/01 07:59:55;;;;;;;19.23;9.50;;;;;;;19.09;76.74;93571.63;5078916;28;20048;-74
2023/10/01 08:02:22;;;;;;;16.88;8.85;;;;;;;19.35;75.24;93563.94;5074272;28;20048;-74
2023/10/01 08:04:57;;;;;;;20.00;8.70;;;;;;;19.63;74.17;93562.69;5070863;28;20076;-74
2023/10/01 08:07:31;;;;;;;22.10;9.30;;;;;;;19.75;73.98;93567.69;5070899;28;20044;-74
2023/10/01 08:10:00;;;;;;;14.75;8.20;;;;;;;19.82;72.71;93564.81;5071696;28;20076;-75
2023/10/01 08:13:04;;;;;;;11.98;7.90;;;;;;;19.97;72.52;93558.88;5069833;28;20142;-75
2023/10/01 08:15:31;;;;;;;14.27;7.95;;;;;;;20.23;72.22;93551.03;5069904;28;20164;-74
2023/10/01 08:18:19;;;;;;;19.17;7.90;;;;;;;20.36;71.51;93551.56;5072103;28;20056;-75
2023/10/01 08:20:57;;;;;;;16.88;7.43;;;;;;;20.60;71.22;93566.69;5072955;28;20120;-75
2023/10/01 08:23:25;;;;;;;15.00;6.70;;;;;;;20.80;70.11;93558.03;5070810;28;20131;-75
2023/10/01 08:25:54;;;;;;;10.65;5.95;;;;;;;20.72;68.86;93555.94;5072525;28;20056;-77
2023/10/01 08:28:29;;;;;;;14.93;6.80;;;;;;;20.16;69.98;93564.34;5075961;28;20052;-75
2023/10/01 08:31:20;;;;;;;11.40;6.60;;;;;;;20.07;71.31;93554.69;5069808;28;20045;-74
2023/10/01 08:33:51;;;;;;;10.15;6.63;;;;;;;19.97;72.49;93545.03;5069656;28;20052;-75
2023/10/01 08:36:24;;;;;;;10.48;6.45;;;;;;;19.98;72.44;93557.03;5071446;28;20059;-74
2023/10/01 08:41:36;;;;;;;12.15;5.93;;;;;;;20.59;69.42;93552.06;5073481;28;20040;-76
2023/10/01 08:44:10;;;;;;;8.85;6.05;;;;;;;20.14;68.91;93565.66;5071902;28;20044;-75
2023/10/01 08:46:39;;;;;;;16.20;7.60;;;;;;;19.96;71.09;93541.66;5074044;28;20051;-75
2023/10/01 08:49:22;;;;;;;10.88;5.75;;;;;;;20.49;69.73;93543.19;5070634;28;20541;-75
2023/10/01 08:52:17;;;;;;;13.93;6.80;;;;;;;20.91;69.48;93558.78;5071210;28;20064;-75
2023/10/01 08:54:44;;;;;;;13.18;6.72;;;;;;;21.12;67.89;93562.13;5072114;28;20127;-76
2023/10/01 08:57:17;;;;;;;9.98;5.78;;;;;;;21.02;67.21;93560.31;5068948;28;20055;-79
2023/10/01 08:59:44;;;;;;;12.18;6.78;;;;;;;21.29;67.92;93545.34;5070239;28;20552;-75
2023/10/01 09:02:16;;;;;;;11.52;6.68;;;;;;;21.47;66.72;93551.78;5070541;28;20083;-76
2023/10/01 09:04:47;;;;;;;11.00;6.97;;;;;;;21.65;67.34;93558.22;5072106;28;20453;-77
2023/10/01 09:07:19;;;;;;;15.82;7.60;;;;;;;21.81;68.46;93558.97;5069653;28;20048;-76
2023/10/01 09:10:06;;;;;;;10.68;6.72;;;;;;;21.94;66.49;93565.38;5073891;28;20059;-75
2023/10/01 09:12:35;;;;;;;11.07;5.70;;;;;;;22.17;61.97;93557.91;5070844;28;20564;-75
2023/10/01 09:15:05;;;;;;;10.18;6.28;;;;;;;22.31;63.70;93562.50;5077261;28;20131;-74
2023/10/01 09:17:56;;;;;;;13.68;6.60;;;;;;;22.39;63.16;93567.16;5068116;28;20696;-76
2023/10/01 09:20:38;;;;;;;11.60;6.10;;;;;;;21.79;62.33;93571.50;5069756;28;20058;-75
2023/10/01 09:23:06;;;;;;;11.98;5.75;;;;;;;21.13;64.40;93560.28;5067660;28;20052;-77
2023/10/01 09:25:39;;;;;;;11.43;6.03;;;;;;;21.10;64.04;93569.44;5071529;28;20569;-76
2023/10/01 09:28:29;;;;;;;9.73;5.28;;;;;;;21.37;62.22;93576.13;5071361;28;20075;-76
2023/10/01 09:31:02;;;;;;;9.70;6.13;;;;;;;21.37;63.11;93576.13;5078659;28;20048;-75
2023/10/01 09:33:29;;;;;;;11.15;5.72;;;;;;;21.43;62.19;93567.22;5065959;28;20048;-75
2023/10/01 09:36:00;;;;;;;9.77;6.10;;;;;;;21.57;63.77;93575.25;5068425;28;20048;-77
2023/10/01 09:38:31;;;;;;;16.00;7.78;;;;;;;21.62;66.82;93580.44;5069428;28;20041;-76
2023/10/01 09:41:00;;;;;;;16.15;7.75;;;;;;;21.47;68.03;93570.88;5082433;28;20106;-76
2023/10/01 09:43:30;;;;;;;16.58;8.32;;;;;;;21.61;67.53;93570.25;5068646;28;20135;-77
2023/10/01 09:46:00;;;;;;;13.95;7.40;;;;;;;21.76;67.69;93564.97;5068109;28;20049;-75
2023/10/01 09:48:33;;;;;;;14.60;7.28;;;;;;;21.99;67.38;93567.22;5069973;28;20056;-76
2023/10/01 09:51:08;;;;;;;11.73;6.53;;;;;;;21.74;63.16;93577.56;5078669;28;20093;-76
2023/10/01 09:53:45;;;;;;;10.38;5.85;;;;;;;21.05;62.96;93580.69;5071253;28;20060;-76
2023/10/01 09:56:26;;;;;;;13.05;7.47;;;;;;;20.68;65.47;93579.19;5070661;28;20114;-75
2023/10/01 09:58:58;;;;;;;12.73;6.07;;;;;;;20.36;66.97;93577.66;5077126;28;20048;-75
2023/10/01 10:01:27;;;;;;;10.07;5.32;;;;;;;20.26;64.06;93576.63;5063267;28;20045;-75
2023/10/01 10:03:59;;;;;;;10.43;6.13;;;;;;;20.05;66.73;93559.38;5074007;28;20103;-77
2023/10/01 10:06:26;;;;;;;8.63;5.45;;;;;;;20.27;65.55;93570.34;5067175;28;20053;-75
2023/10/01 10:09:03;;;;;;;9.43;6.28;;;;;;;20.51;66.64;93556.00;5072908;28;20527;-75
2023/10/01 10:11:36;;;;;;;14.77;7.25;;;;;;;21.05;68.34;93562.41;5080145;28;20048;-75
2023/10/01 10:14:25;;;;;;;11.50;6.35;;;;;;;21.54;62.49;93557.50;5068164;28;20060;-75
2023/10/01 10:16:57;;;;;;;7.70;5.55;;;;;;;21.35;56.71;93544.28;5070697;28;20060;-75
2023/10/01 10:19:24;;;;;;;10.82;5.32;;;;;;;21.41;58.78;93550.25;5062472;28;20134;-75
2023/10/01 10:22:25;;;;;;;10.40;4.90;;;;;;;21.44;58.09;93562.78;5069298;28;20512;-75
2023/10/01 10:25:25;;;;;;;8.52;5.25;;;;;;;21.35;58.47;93563.34;5081124;28;20049;-75
2023/10/01 10:27:56;;;;;;;10.52;5.38;;;;;;;21.58;58.50;93552.53;5073621;28;20041;-75
2023/10/01 10:30:27;;;;;;;8.90;5.60;;;;;;;21.58;59.31;93549.91;5074026;28;20056;-75
2023/10/01 10:33:43;;;;;;;9.95;5.53;;;;;;;21.91;58.22;93539.78;5067180;28;20571;-75
2023/10/01 10:36:53;;;;;;;11.20;4.95;;;;;;;22.22;55.79;93546.63;5078318;28;20040;-75
2023/10/01 10:40:04;;;;;;;9.95;5.18;;;;;;;22.42;54.84;93543.06;5075869;28;20054;-76
2023/10/01 10:42:33;;;;;;;7.68;4.93;;;;;;;22.47;52.97;93544.84;5080933;28;20048;-76
2023/10/01 10:45:21;;;;;;;9.57;4.85;;;;;;;22.62;53.60;93510.69;5081789;28;20067;-75
2023/10/01 10:48:01;;;;;;;9.90;4.88;;;;;;;22.65;51.55;93544.19;5081941;28;20044;-75
2023/10/01 10:50:48;;;;;;;11.02;5.28;;;;;;;22.01;53.30;93541.53;5066480;28;20680;-75
2023/10/01 10:53:18;;;;;;;9.50;6.43;;;;;;;21.91;54.74;93542.41;5069147;28;20048;-76
2023/10/01 10:55:54;;;;;;;13.02;8.15;;;;;;;21.79;55.17;93541.97;5069438;28;20079;-75
2023/10/01 10:58:24;;;;;;;23.38;15.88;;;;;;;21.80;55.37;93533.84;5067422;28;20500;-75
2023/10/01 11:00:53;;;;;;;16.48;9.50;;;;;;;22.05;54.56;93524.25;5065961;28;20431;-75
2023/10/01 11:03:40;;;;;;;9.13;6.00;;;;;;;21.88;51.12;93530.66;5070254;28;20045;-75
2023/10/01 11:06:17;;;;;;;9.63;5.57;;;;;;;22.12;51.84;93519.50;5068553;28;20059;-75
2023/10/01 11:08:51;;;;;;;8.93;5.28;;;;;;;22.53;52.60;93518.38;5069591;28;20150;-75
2023/10/01 11:11:22;;;;;;;9.65;4.55;;;;;;;22.96;51.15;93519.50;5071284;28;20044;-76
2023/10/01 11:13:59;;;;;;;7.18;3.95;;;;;;;23.17;51.15;93519.25;5074559;28;20052;-75
2023/10/01 11:16:33;;;;;;;7.30;4.00;;;;;;;22.72;51.66;93516.88;5071736;28;20185;-75
2023/10/01 11:19:12;;;;;;;10.88;5.78;;;;;;;22.35;54.11;93509.34;5072640;28;20059;-77
2023/10/01 11:21:58;;;;;;;11.02;5.13;;;;;;;22.63;53.51;93501.78;5070386;28;20095;-75
2023/10/01 11:24:29;;;;;;;7.90;4.82;;;;;;;22.72;54.36;93496.69;5075100;28;20058;-75
2023/10/01 11:27:25;;;;;;;9.82;4.72;;;;;;;23.18;53.57;93502.47;5070523;28;20562;-76
2023/10/01 11:29:59;;;;;;;8.88;4.82;;;;;;;23.41;51.90;93495.63;5036262;28;20091;-75
2023/10/01 11:33:01;;;;;;;8.32;4.70;;;;;;;22.68;53.48;93506.97;5069639;28;20500;-75
2023/10/01 11:35:35;;;;;;;9.25;4.90;;;;;;;22.87;53.45;93498.38;5072841;28;20045;-75
2023/10/01 11:38:08;;;;;;;11.75;6.00;;;;;;;22.80;54.66;93488.25;5071237;28;20058;-75
2023/10/01 11:43:32;;;;;;;8.15;4.90;;;;;;;22.63;54.33;93483.44;5070507;28;20231;-75
2023/10/01 11:46:19;;;;;;;7.90;4.97;;;;;;;22.33;55.17;93472.22;5070366;28;20052;-75
2023/10/01 11:48:59;;;;;;;12.40;6.30;;;;;;;22.25;55.79;93494.53;5072598;28;20048;-74
2023/10/01 11:51:36;;;;;;;10.30;5.50;;;;;;;22.17;56.21;93500.34;5066723;28;20133;-74
2023/10/01 11:54:09;;;;;;;15.68;8.40;;;;;;;21.97;56.81;93490.84;5070248;28;20048;-74
2023/10/01 11:56:37;;;;;;;21.88;10.32;;;;;;;21.77;56.79;93484.72;5068215;28;20549;-74
2023/10/01 11:59:08;;;;;;;26.50;12.20;;;;;;;21.82;56.61;93484.69;5066976;28;20044;-74
2023/10/01 12:01:43;;;;;;;8.05;4.50;;;;;;;21.73;55.61;93474.03;5070116;28;20048;-74
2023/10/01 12:04:11;;;;;;;9.18;5.13;;;;;;;21.65;55.31;93482.41;5087842;28;20048;-75
2023/10/01 12:06:38;;;;;;;12.52;5.75;;;;;;;21.72;56.67;93475.06;5082010;28;20041;-75
2023/10/01 12:09:05;;;;;;;11.57;6.38;;;;;;;21.85;56.96;93476.28;5072001;28;20133;-75
2023/10/01 12:11:36;;;;;;;10.70;6.40;;;;;;;21.63;58.08;93479.31;5069621;28;20044;-75
2023/10/01 12:14:06;;;;;;;9.48;5.00;;;;;;;21.45;57.04;93467.66;5076051;28;20591;-76
2023/10/01 12:16:33;;;;;;;9.77;5.57;;;;;;;21.37;58.42;93474.22;5062605;28;20052;-76